TimeCST,TemperatureF,Dew PointF,Humidity,Sea Level PressureIn,VisibilityMPH,Wind Direction,Wind SpeedMPH,Gust SpeedMPH,PrecipitationIn,Events,Conditions,WindDirDegrees,DateUTC
12:15 AM,31.8,28.4,87,30.09,10.0,Calm,Calm,-,N/A,,Clear,0,2013-02-11 06:15:00
12:35 AM,32.2,28.0,85,30.09,10.0,North,4.6,-,N/A,,Clear,360,2013-02-11 06:35:00
12:55 AM,31.6,27.9,86,30.09,10.0,NNW,4.6,-,N/A,,Clear,340,2013-02-11 06:55:00
1:15 AM,34.9,28.9,79,30.09,10.0,North,10.4,-,N/A,,Clear,350,2013-02-11 07:15:00
1:35 AM,36.5,28.8,74,30.10,10.0,North,10.4,-,N/A,,Clear,350,2013-02-11 07:35:00
1:55 AM,36.5,29.3,75,30.10,10.0,North,12.7,-,N/A,,Clear,360,2013-02-11 07:55:00
2:15 AM,36.5,29.1,75,30.11,10.0,North,9.2,-,N/A,,Clear,360,2013-02-11 08:15:00
2:35 AM,36.0,28.9,76,30.11,10.0,North,11.5,-,N/A,,Clear,360,2013-02-11 08:35:00
2:55 AM,35.2,28.4,76,30.12,10.0,North,6.9,-,N/A,,Clear,360,2013-02-11 08:55:00
3:15 AM,34.0,28.4,80,30.13,10.0,North,8.1,-,N/A,,Clear,360,2013-02-11 09:15:00
3:35 AM,34.7,28.4,78,30.12,10.0,North,11.5,-,N/A,,Clear,360,2013-02-11 09:35:00
3:55 AM,35.1,28.2,76,30.13,10.0,North,11.5,-,N/A,,Clear,360,2013-02-11 09:55:00
4:15 AM,34.9,28.2,77,30.13,10.0,North,11.5,-,N/A,,Clear,360,2013-02-11 10:15:00
4:35 AM,34.3,27.5,76,30.14,10.0,North,10.4,-,N/A,,Clear,10,2013-02-11 10:35:00
4:55 AM,33.8,27.0,76,30.15,10.0,North,9.2,-,N/A,,Clear,360,2013-02-11 10:55:00
5:15 AM,32.9,26.6,78,30.16,10.0,North,4.6,-,N/A,,Clear,360,2013-02-11 11:15:00
5:35 AM,32.0,26.4,80,30.17,10.0,North,4.6,-,N/A,,Clear,350,2013-02-11 11:35:00
5:55 AM,31.3,26.1,81,30.18,10.0,North,4.6,-,N/A,,Clear,350,2013-02-11 11:55:00
6:15 AM,30.4,26.2,85,30.17,10.0,North,8.1,-,N/A,,Clear,350,2013-02-11 12:15:00
6:35 AM,31.1,26.2,82,30.17,10.0,North,9.2,-,N/A,,Clear,360,2013-02-11 12:35:00
6:55 AM,31.1,26.1,82,30.17,10.0,North,9.2,-,N/A,,Clear,360,2013-02-11 12:55:00
7:15 AM,31.5,26.2,81,30.18,10.0,North,9.2,-,N/A,,Clear,360,2013-02-11 13:15:00
7:35 AM,31.5,26.1,80,30.18,10.0,North,6.9,-,N/A,,Clear,350,2013-02-11 13:35:00
7:55 AM,31.1,25.9,81,30.19,10.0,North,5.8,-,N/A,,Clear,350,2013-02-11 13:55:00
8:15 AM,32.0,26.6,80,30.20,10.0,North,4.6,-,N/A,,Clear,360,2013-02-11 14:15:00
8:35 AM,33.1,27.5,80,30.21,10.0,North,4.6,-,N/A,,Clear,10,2013-02-11 14:35:00
9:15 AM,37.0,27.1,67,30.22,10.0,NNE,10.4,-,N/A,,Clear,20,2013-02-11 15:15:00
9:35 AM,36.7,26.1,65,30.23,10.0,NNE,12.7,-,N/A,,Clear,30,2013-02-11 15:35:00
9:55 AM,38.5,26.6,62,30.23,10.0,NNE,15.0,-,N/A,,Clear,30,2013-02-11 15:55:00
10:15 AM,39.2,26.8,61,30.23,10.0,NNE,16.1,-,N/A,,Clear,30,2013-02-11 16:15:00
10:35 AM,39.4,26.6,60,30.23,10.0,NNE,13.8,-,N/A,,Clear,20,2013-02-11 16:35:00
10:55 AM,40.3,26.8,59,30.23,10.0,NE,12.7,-,N/A,,Clear,40,2013-02-11 16:55:00
11:15 AM,41.2,26.6,56,30.23,10.0,NE,12.7,-,N/A,,Clear,40,2013-02-11 17:15:00
11:35 AM,42.1,26.2,53,30.22,10.0,NNE,12.7,18.4,N/A,,Clear,20,2013-02-11 17:35:00
11:55 AM,42.1,26.6,54,30.21,10.0,NNE,13.8,-,N/A,,Clear,30,2013-02-11 17:55:00
12:15 PM,43.3,26.2,51,30.21,10.0,NE,13.8,18.4,N/A,,Clear,50,2013-02-11 18:15:00
12:35 PM,44.1,26.6,50,30.20,10.0,NNE,11.5,-,N/A,,Clear,30,2013-02-11 18:35:00
12:55 PM,44.8,25.3,47,30.19,10.0,NNE,8.1,-,N/A,,Clear,30,2013-02-11 18:55:00
1:15 PM,45.5,25.5,46,30.18,10.0,NE,10.4,-,N/A,,Clear,50,2013-02-11 19:15:00
1:35 PM,46.2,25.9,45,30.17,10.0,NNE,11.5,-,N/A,,Clear,20,2013-02-11 19:35:00
1:55 PM,46.9,26.1,44,30.16,10.0,NNE,8.1,-,N/A,,Clear,30,2013-02-11 19:55:00
2:15 PM,47.3,25.7,43,30.14,10.0,ENE,9.2,-,N/A,,Clear,70,2013-02-11 20:15:00
2:35 PM,47.7,26.1,43,30.13,10.0,ENE,9.2,-,N/A,,Clear,60,2013-02-11 20:35:00
2:55 PM,48.6,26.1,42,30.13,10.0,NE,6.9,-,N/A,,Clear,50,2013-02-11 20:55:00
3:15 PM,48.6,25.9,41,30.12,10.0,NNE,5.8,-,N/A,,Clear,30,2013-02-11 21:15:00
3:35 PM,49.1,26.4,41,30.11,10.0,ENE,8.1,-,N/A,,Clear,70,2013-02-11 21:35:00
3:55 PM,48.9,26.4,42,30.11,10.0,NE,9.2,-,N/A,,Clear,40,2013-02-11 21:55:00
4:15 PM,48.9,26.8,42,30.11,10.0,NE,10.4,-,N/A,,Clear,40,2013-02-11 22:15:00
5:15 PM,48.2,26.6,43,30.10,10.0,NE,10.4,-,N/A,,Clear,50,2013-02-11 23:15:00
5:35 PM,48.2,27.3,44,30.10,10.0,ENE,9.2,-,N/A,,Clear,70,2013-02-11 23:35:00
5:55 PM,46.6,27.3,47,30.10,10.0,East,9.2,-,N/A,,Clear,80,2013-02-11 23:55:00
6:15 PM,44.8,28.6,53,30.11,10.0,East,8.1,-,N/A,,Clear,90,2013-02-12 00:15:00
6:35 PM,43.7,29.1,57,30.11,10.0,East,5.8,-,N/A,,Scattered Clouds,100,2013-02-12 00:35:00
6:55 PM,42.8,29.7,60,30.11,10.0,East,3.5,-,N/A,,Scattered Clouds,90,2013-02-12 00:55:00
7:15 PM,41.5,30.2,64,30.11,10.0,ENE,3.5,-,N/A,,Mostly Cloudy,70,2013-02-12 01:15:00
7:35 PM,41.9,30.4,64,30.12,10.0,ENE,3.5,-,N/A,,Scattered Clouds,60,2013-02-12 01:35:00
7:55 PM,41.0,30.0,65,30.11,10.0,ENE,5.8,-,N/A,,Clear,60,2013-02-12 01:55:00
8:15 PM,39.4,30.0,69,30.12,10.0,NNE,5.8,-,N/A,,Clear,20,2013-02-12 02:15:00
8:35 PM,39.9,29.3,66,30.11,10.0,ESE,4.6,-,N/A,,Scattered Clouds,110,2013-02-12 02:35:00
8:55 PM,39.2,29.7,69,30.11,10.0,Calm,Calm,-,N/A,,Clear,0,2013-02-12 02:55:00
9:15 PM,37.2,29.8,75,30.12,10.0,North,4.6,-,N/A,,Clear,360,2013-02-12 03:15:00
9:35 PM,36.7,30.2,77,30.13,10.0,North,5.8,-,N/A,,Scattered Clouds,10,2013-02-12 03:35:00
10:15 PM,39.6,30.2,69,30.13,10.0,NNE,5.8,-,N/A,,Scattered Clouds,30,2013-02-12 04:15:00
10:35 PM,39.2,30.0,70,30.13,10.0,NNE,5.8,-,N/A,,Scattered Clouds,20,2013-02-12 04:35:00
10:55 PM,40.1,29.8,67,30.12,10.0,NE,4.6,-,N/A,,Scattered Clouds,40,2013-02-12 04:55:00
11:15 PM,39.2,29.3,68,30.12,10.0,NNE,6.9,-,N/A,,Scattered Clouds,30,2013-02-12 05:15:00
11:35 PM,39.0,28.4,66,30.11,10.0,NNE,8.1,-,N/A,,Scattered Clouds,30,2013-02-12 05:35:00
11:55 PM,37.2,28.4,70,30.09,10.0,NE,11.5,-,N/A,,Clear,40,2013-02-12 05:55:00